Terminal Aerodrome Forecast
Issued by NWS

Home | Current Version | Previous Version | Text Only | Print | Product List | Glossary On
Versions: 1 2 3 4 5 6 7 8 9 10 11 12 13 14
000
FTUS45 KREV 200520
TAFCXP
TAF
KCXP 200520Z 2006/2106 VRB03KT P6SM SCT100 SCT200
     FM202000 04007KT P6SM SCT080 SCT140
     FM210300 VRB03KT P6SM SCT110=

USA.gov is the U.S. government's official web portal to all federal, state and local government web resources and services.